Terminal Aerodrome Forecast
Issued by NWS Sioux Falls, SD

Home | Current Version | Previous Version | Text Only | Print | Product List | Glossary Off
Versions: 1 2 3 4 5 6 7 8 9 10 11 12 13 14 15 16 17 18 19 20 21 22 23 24 25 26 27

000
FTUS43 KFSD 301601 AAB
TAFSUX
TAF AMD
KSUX 301601Z 3016/0112 03015G23KT P6SM -RA OVC012
      TEMPO 3016/3019 4SM RA BKN008
     FM301900 03017G27KT 3SM RA BR OVC008
     FM010000 02018KT 2SM RA BR OVC008
     FM010300 35013KT 4SM RA BR OVC008
     FM010700 34017KT 5SM -RASN OVC008=

USA.gov is the U.S. government's official web portal to all federal, state and local government web resources and services.